Time,TemperatureF,DewpointF,PressureIn,WindDirection,WindDirectionDegrees,WindSpeedMPH,WindSpeedGustMPH,Humidity,HourlyPrecipIn,Conditions,Clouds,dailyrainin,SoftwareType,DateUTC
2013-01-28 00:02:00,69.3,64.9,29.44,SSW,203,7.2,9.8,86,0.00,,,0.00,WUHU216HW,2013-01-28 06:02:00,
2013-01-28 00:07:00,69.3,64.9,29.44,SSE,158,4.7,9.8,86,0.00,,,0.00,WUHU216HW,2013-01-28 06:07:00,
2013-01-28 00:12:00,69.3,65.3,29.45,ESE,113,7.6,8.5,87,0.00,,,0.00,WUHU216HW,2013-01-28 06:12:00,
2013-01-28 00:17:00,68.9,64.9,29.44,SSW,203,7.6,8.1,87,0.00,,,0.00,WUHU216HW,2013-01-28 06:17:00,
2013-01-28 00:22:00,68.8,65.1,29.44,SSW,203,7.2,9.8,88,0.00,,,0.00,WUHU216HW,2013-01-28 06:22:00,
2013-01-28 00:27:00,68.8,65.1,29.44,SSE,158,4.3,9.8,88,0.00,,,0.00,WUHU216HW,2013-01-28 06:27:00,
2013-01-28 00:32:00,68.8,65.1,29.44,SSE,158,5.8,8.7,88,0.00,,,0.00,WUHU216HW,2013-01-28 06:32:00,
2013-01-28 00:37:00,68.6,64.9,29.44,South,180,2.0,8.9,88,0.00,,,0.00,WUHU216HW,2013-01-28 06:37:00,
2013-01-28 00:42:00,68.6,64.9,29.44,ESE,113,3.8,8.9,88,0.00,,,0.00,WUHU216HW,2013-01-28 06:42:00,
2013-01-28 00:48:00,68.6,64.9,29.44,SSW,203,4.9,7.2,88,0.00,,,0.00,WUHU216HW,2013-01-28 06:48:00,
2013-01-28 00:53:00,68.6,64.9,29.44,SSW,203,9.2,9.2,88,0.00,,,0.00,WUHU216HW,2013-01-28 06:53:00,
2013-01-28 00:58:00,68.8,65.1,29.44,South,180,10.1,10.1,88,0.00,,,0.00,WUHU216HW,2013-01-28 06:58:00,
2013-01-28 01:03:00,68.6,64.9,29.45,SSW,203,4.7,10.1,88,0.00,,,0.00,WUHU216HW,2013-01-28 07:03:00,
2013-01-28 01:08:00,68.6,64.9,29.45,SSW,203,3.1,9.2,88,0.00,,,0.00,WUHU216HW,2013-01-28 07:08:00,
2013-01-28 01:13:00,68.6,64.9,29.45,SSE,158,5.1,9.2,88,0.00,,,0.00,WUHU216HW,2013-01-28 07:13:00,
2013-01-28 01:18:00,68.6,64.9,29.45,SSE,158,8.7,8.7,88,0.00,,,0.00,WUHU216HW,2013-01-28 07:18:00,
2013-01-28 01:23:00,68.6,64.9,29.45,SSE,158,4.7,8.7,88,0.00,,,0.00,WUHU216HW,2013-01-28 07:23:00,
2013-01-28 01:28:00,68.6,64.9,29.45,SSW,203,5.6,6.9,88,0.00,,,0.00,WUHU216HW,2013-01-28 07:28:00,
2013-01-28 01:33:00,68.6,65.2,29.45,SE,135,4.7,6.3,89,0.00,,,0.00,WUHU216HW,2013-01-28 07:33:00,
2013-01-28 01:38:00,68.4,64.7,29.45,SE,135,10.5,10.5,88,0.00,,,0.00,WUHU216HW,2013-01-28 07:38:00,
2013-01-28 01:43:00,68.4,65.0,29.45,SSE,158,4.3,10.5,89,0.00,,,0.00,WUHU216HW,2013-01-28 07:43:00,
2013-01-28 01:48:00,68.4,65.0,29.44,SSW,203,5.6,7.6,89,0.00,,,0.00,WUHU216HW,2013-01-28 07:48:00,
2013-01-28 01:53:00,68.4,65.0,29.45,South,180,1.6,7.6,89,0.00,,,0.00,WUHU216HW,2013-01-28 07:53:00,
2013-01-28 01:58:00,68.4,65.0,29.44,SSE,158,2.7,6.5,89,0.00,,,0.00,WUHU216HW,2013-01-28 07:58:00,
2013-01-28 02:03:00,68.4,65.0,29.44,SSW,203,4.0,8.9,89,0.00,,,0.00,WUHU216HW,2013-01-28 08:03:00,
2013-01-28 02:08:00,68.4,65.0,29.44,SE,135,3.4,8.9,89,0.00,,,0.00,WUHU216HW,2013-01-28 08:08:00,
2013-01-28 02:13:00,68.4,65.0,29.44,ESE,113,2.7,6.7,89,0.00,,,0.00,WUHU216HW,2013-01-28 08:13:00,
2013-01-28 02:18:00,68.4,65.0,29.44,SSE,158,6.3,6.7,89,0.00,,,0.00,WUHU216HW,2013-01-28 08:18:00,
2013-01-28 02:23:00,68.4,65.0,29.44,SSE,158,5.4,7.4,89,0.00,,,0.00,WUHU216HW,2013-01-28 08:23:00,
2013-01-28 02:28:00,68.4,65.0,29.44,SSW,203,6.9,7.4,89,0.00,,,0.00,WUHU216HW,2013-01-28 08:28:00,
2013-01-28 02:33:00,68.4,65.0,29.44,SSW,203,2.2,6.9,89,0.00,,,0.00,WUHU216HW,2013-01-28 08:33:00,
2013-01-28 02:39:00,68.4,64.7,29.44,SW,225,7.4,7.4,88,0.00,,,0.00,WUHU216HW,2013-01-28 08:39:00,
2013-01-28 02:44:00,68.4,65.0,29.43,SE,135,6.7,9.2,89,0.00,,,0.00,WUHU216HW,2013-01-28 08:44:00,
2013-01-28 02:49:00,68.4,64.7,29.43,SSW,203,6.3,9.2,88,0.00,,,0.00,WUHU216HW,2013-01-28 08:49:00,
2013-01-28 02:54:00,68.4,64.7,29.43,SSW,203,4.9,8.9,88,0.00,,,0.00,WUHU216HW,2013-01-28 08:54:00,
2013-01-28 02:59:00,68.4,65.0,29.43,SSE,158,6.7,10.1,89,0.00,,,0.00,WUHU216HW,2013-01-28 08:59:00,
2013-01-28 03:04:00,68.4,65.0,29.43,SSW,203,4.7,10.1,89,0.00,,,0.00,WUHU216HW,2013-01-28 09:04:00,
2013-01-28 03:09:00,68.4,65.0,29.43,SW,225,4.3,10.1,89,0.00,,,0.00,WUHU216HW,2013-01-28 09:09:00,
2013-01-28 03:14:00,68.4,65.0,29.43,SW,225,6.9,10.1,89,0.00,,,0.00,WUHU216HW,2013-01-28 09:14:00,
2013-01-28 03:19:00,68.4,65.0,29.43,NW,315,2.5,7.8,89,0.00,,,0.00,WUHU216HW,2013-01-28 09:19:00,
2013-01-28 03:24:00,68.4,65.0,29.43,SSW,203,6.3,6.3,89,0.00,,,0.00,WUHU216HW,2013-01-28 09:24:00,
2013-01-28 03:29:00,68.4,65.0,29.43,SE,135,3.4,10.5,89,0.00,,,0.00,WUHU216HW,2013-01-28 09:29:00,
2013-01-28 03:34:00,68.4,65.0,29.43,South,180,8.3,10.5,89,0.00,,,0.00,WUHU216HW,2013-01-28 09:34:00,
2013-01-28 03:39:00,68.4,65.0,29.43,WSW,248,2.0,8.3,89,0.00,,,0.00,WUHU216HW,2013-01-28 09:39:00,
2013-01-28 03:44:00,68.4,65.0,29.43,SW,225,9.2,9.2,89,0.00,,,0.00,WUHU216HW,2013-01-28 09:44:00,
2013-01-28 03:49:00,68.4,65.0,29.43,SSW,203,6.9,9.2,89,0.00,,,0.00,WUHU216HW,2013-01-28 09:49:00,
2013-01-28 03:54:00,68.4,65.0,29.43,SW,225,2.2,10.3,89,0.00,,,0.00,WUHU216HW,2013-01-28 09:54:00,
2013-01-28 03:59:00,68.4,65.0,29.43,SSW,203,6.9,10.3,89,0.00,,,0.00,WUHU216HW,2013-01-28 09:59:00,
2013-01-28 04:04:00,68.4,64.7,29.43,SE,135,1.8,9.8,88,0.00,,,0.00,WUHU216HW,2013-01-28 10:04:00,
2013-01-28 04:09:00,68.4,64.7,29.43,SSE,158,4.3,7.6,88,0.00,,,0.00,WUHU216HW,2013-01-28 10:09:00,
2013-01-28 04:14:00,68.4,65.0,29.43,WSW,248,3.4,7.8,89,0.00,,,0.00,WUHU216HW,2013-01-28 10:14:00,
2013-01-28 04:19:00,68.4,65.0,29.43,SE,135,4.5,7.8,89,0.00,,,0.00,WUHU216HW,2013-01-28 10:19:00,
2013-01-28 04:24:00,68.4,64.7,29.43,SSE,158,5.1,7.4,88,0.00,,,0.00,WUHU216HW,2013-01-28 10:24:00,
2013-01-28 04:29:00,68.4,64.7,29.43,SW,225,3.6,6.0,88,0.00,,,0.00,WUHU216HW,2013-01-28 10:29:00,
2013-01-28 04:34:00,68.4,64.7,29.43,SW,225,2.7,8.3,88,0.00,,,0.00,WUHU216HW,2013-01-28 10:34:00,
2013-01-28 04:39:00,68.4,65.0,29.43,SE,135,6.0,8.3,89,0.00,,,0.00,WUHU216HW,2013-01-28 10:39:00,
2013-01-28 04:44:00,68.4,65.0,29.42,ESE,113,2.0,6.7,89,0.00,,,0.00,WUHU216HW,2013-01-28 10:44:00,
2013-01-28 04:49:00,68.4,65.0,29.42,ESE,113,2.9,7.2,89,0.00,,,0.00,WUHU216HW,2013-01-28 10:49:00,
2013-01-28 04:55:00,68.4,65.0,29.42,SSE,158,3.6,7.2,89,0.00,,,0.00,WUHU216HW,2013-01-28 10:55:00,
2013-01-28 05:00:00,68.2,64.8,29.43,SSE,158,2.0,4.9,89,0.00,,,0.00,WUHU216HW,2013-01-28 11:00:00,
2013-01-28 05:05:00,68.2,64.8,29.42,SE,135,3.4,4.9,89,0.00,,,0.00,WUHU216HW,2013-01-28 11:05:00,
2013-01-28 05:10:00,68.2,64.8,29.42,SE,135,1.8,4.9,89,0.00,,,0.00,WUHU216HW,2013-01-28 11:10:00,
2013-01-28 05:15:00,68.2,64.8,29.42,SE,135,2.0,4.9,89,0.00,,,0.00,WUHU216HW,2013-01-28 11:15:00,
2013-01-28 05:20:00,68.2,65.2,29.43,SSW,203,3.4,4.9,90,0.00,,,0.00,WUHU216HW,2013-01-28 11:20:00,
2013-01-28 05:25:00,68.0,64.6,29.43,SSE,158,6.5,7.4,89,0.00,,,0.00,WUHU216HW,2013-01-28 11:25:00,
2013-01-28 05:30:00,68.0,65.0,29.43,SW,225,4.0,7.4,90,0.00,,,0.00,WUHU216HW,2013-01-28 11:30:00,
2013-01-28 05:35:00,68.0,65.0,29.43,South,180,4.5,6.5,90,0.00,,,0.00,WUHU216HW,2013-01-28 11:35:00,
2013-01-28 05:40:00,68.0,65.0,29.43,SSE,158,2.7,5.6,90,0.00,,,0.00,WUHU216HW,2013-01-28 11:40:00,
2013-01-28 05:45:00,68.0,65.0,29.43,East,90,0.9,5.6,90,0.00,,,0.00,WUHU216HW,2013-01-28 11:45:00,
2013-01-28 05:50:00,68.0,65.0,29.43,South,180,5.1,6.5,90,0.00,,,0.00,WUHU216HW,2013-01-28 11:50:00,
2013-01-28 05:55:00,68.0,65.0,29.42,SE,135,3.6,6.5,90,0.00,,,0.00,WUHU216HW,2013-01-28 11:55:00,
2013-01-28 06:00:00,68.0,65.0,29.43,WSW,248,2.5,6.3,90,0.00,,,0.00,WUHU216HW,2013-01-28 12:00:00,
2013-01-28 06:05:00,67.9,64.8,29.43,SSW,203,4.0,6.3,90,0.00,,,0.00,WUHU216HW,2013-01-28 12:05:00,
2013-01-28 06:10:00,67.9,64.8,29.43,SSW,203,2.9,4.7,90,0.00,,,0.00,WUHU216HW,2013-01-28 12:10:00,
2013-01-28 06:15:00,67.9,64.8,29.43,South,180,2.5,4.5,90,0.00,,,0.00,WUHU216HW,2013-01-28 12:15:00,
2013-01-28 06:20:00,67.9,64.8,29.43,SW,225,5.8,5.8,90,0.00,,,0.00,WUHU216HW,2013-01-28 12:20:00,
2013-01-28 06:25:00,68.0,65.0,29.43,SSE,158,6.5,6.5,90,0.00,,,0.00,WUHU216HW,2013-01-28 12:25:00,
2013-01-28 06:31:00,68.0,65.3,29.43,SSW,203,8.9,8.9,91,0.00,,,0.00,WUHU216HW,2013-01-28 12:31:00,
2013-01-28 06:36:00,68.0,65.3,29.43,SW,225,6.0,8.9,91,0.00,,,0.00,WUHU216HW,2013-01-28 12:36:00,
2013-01-28 06:41:00,68.0,65.3,29.44,South,180,2.2,9.4,91,0.00,,,0.00,WUHU216HW,2013-01-28 12:41:00,
2013-01-28 06:46:00,68.0,65.3,29.44,SSE,158,4.7,9.4,91,0.00,,,0.00,WUHU216HW,2013-01-28 12:46:00,
2013-01-28 06:51:00,68.0,65.0,29.44,SSE,158,4.0,8.1,90,0.00,,,0.00,WUHU216HW,2013-01-28 12:51:00,
2013-01-28 06:56:00,68.0,65.0,29.44,SSE,158,3.1,8.1,90,0.00,,,0.00,WUHU216HW,2013-01-28 12:56:00,
2013-01-28 07:01:00,68.0,65.3,29.45,SSW,203,6.9,8.1,91,0.00,,,0.00,WUHU216HW,2013-01-28 13:01:00,
2013-01-28 07:06:00,68.0,65.3,29.45,SW,225,5.4,7.2,91,0.00,,,0.00,WUHU216HW,2013-01-28 13:06:00,
2013-01-28 07:11:00,68.0,65.3,29.45,SSW,203,5.1,7.2,91,0.00,,,0.00,WUHU216HW,2013-01-28 13:11:00,
2013-01-28 07:16:00,68.0,65.3,29.45,ESE,113,1.8,6.3,91,0.00,,,0.00,WUHU216HW,2013-01-28 13:16:00,
2013-01-28 07:21:00,68.0,65.3,29.45,SSE,158,4.3,6.3,91,0.00,,,0.00,WUHU216HW,2013-01-28 13:21:00,
2013-01-28 07:26:00,68.0,65.3,29.45,SSW,203,6.9,7.6,91,0.00,,,0.00,WUHU216HW,2013-01-28 13:26:00,
2013-01-28 07:31:00,68.0,65.3,29.45,SE,135,4.7,7.6,91,0.00,,,0.00,WUHU216HW,2013-01-28 13:31:00,
2013-01-28 07:36:00,68.0,65.3,29.45,ESE,113,3.1,9.2,91,0.00,,,0.00,WUHU216HW,2013-01-28 13:36:00,
2013-01-28 07:41:00,68.0,65.3,29.46,SSE,158,4.5,9.2,91,0.00,,,0.00,WUHU216HW,2013-01-28 13:41:00,
2013-01-28 07:46:00,68.0,65.3,29.46,South,180,5.4,8.1,91,0.00,,,0.00,WUHU216HW,2013-01-28 13:46:00,
2013-01-28 07:51:00,68.0,65.3,29.46,SE,135,2.5,8.1,91,0.00,,,0.00,WUHU216HW,2013-01-28 13:51:00,
2013-01-28 07:56:00,68.2,65.4,29.46,South,180,6.3,6.9,91,0.00,,,0.00,WUHU216HW,2013-01-28 13:56:00,
2013-01-28 08:01:00,68.2,65.4,29.46,SSW,203,6.3,6.9,91,0.00,,,0.00,WUHU216HW,2013-01-28 14:01:00,
2013-01-28 08:06:00,68.2,65.4,29.46,SSE,158,3.4,8.7,91,0.00,,,0.00,WUHU216HW,2013-01-28 14:06:00,
2013-01-28 08:11:00,68.2,65.4,29.46,SSW,203,2.0,9.2,91,0.00,,,0.00,WUHU216HW,2013-01-28 14:11:00,
2013-01-28 08:16:00,68.2,65.4,29.47,SW,225,2.5,9.2,91,0.00,,,0.00,WUHU216HW,2013-01-28 14:16:00,
2013-01-28 08:21:00,68.4,65.6,29.46,SSW,203,6.7,6.7,91,0.00,,,0.00,WUHU216HW,2013-01-28 14:21:00,
2013-01-28 08:27:00,68.4,65.6,29.46,SSW,203,7.8,7.8,91,0.00,,,0.00,WUHU216HW,2013-01-28 14:27:00,
2013-01-28 08:32:00,68.6,65.8,29.47,SSE,158,5.4,10.5,91,0.00,,,0.00,WUHU216HW,2013-01-28 14:32:00,
2013-01-28 08:37:00,68.6,65.8,29.47,SSW,203,3.6,10.7,91,0.00,,,0.00,WUHU216HW,2013-01-28 14:37:00,
2013-01-28 08:42:00,68.6,65.8,29.47,SW,225,2.9,10.7,91,0.00,,,0.00,WUHU216HW,2013-01-28 14:42:00,
2013-01-28 08:47:00,68.8,66.0,29.47,SSW,203,3.8,6.5,91,0.00,,,0.00,WUHU216HW,2013-01-28 14:47:00,
2013-01-28 08:52:00,68.8,66.0,29.47,SSW,203,9.8,9.8,91,0.00,,,0.00,WUHU216HW,2013-01-28 14:52:00,
2013-01-28 08:57:00,68.8,66.0,29.47,ESE,113,1.3,9.8,91,0.00,,,0.00,WUHU216HW,2013-01-28 14:57:00,
2013-01-28 09:02:00,68.8,66.0,29.47,SSE,158,5.1,6.3,91,0.00,,,0.00,WUHU216HW,2013-01-28 15:02:00,
2013-01-28 09:07:00,68.9,66.2,29.47,SW,225,5.1,5.8,91,0.00,,,0.00,WUHU216HW,2013-01-28 15:07:00,
2013-01-28 09:12:00,68.9,66.2,29.47,South,180,8.1,8.7,91,0.00,,,0.00,WUHU216HW,2013-01-28 15:12:00,
2013-01-28 09:17:00,69.1,66.3,29.47,South,180,4.9,8.7,91,0.00,,,0.00,WUHU216HW,2013-01-28 15:17:00,
2013-01-28 09:22:00,69.1,66.3,29.47,SE,135,6.3,8.5,91,0.00,,,0.00,WUHU216HW,2013-01-28 15:22:00,
2013-01-28 09:27:00,69.1,66.3,29.47,South,180,9.2,10.7,91,0.00,,,0.00,WUHU216HW,2013-01-28 15:27:00,
2013-01-28 09:32:00,69.5,66.4,29.47,SSE,158,3.6,10.7,90,0.00,,,0.00,WUHU216HW,2013-01-28 15:32:00,
2013-01-28 09:37:00,69.5,66.4,29.47,South,180,9.4,9.4,90,0.00,,,0.00,WUHU216HW,2013-01-28 15:37:00,
2013-01-28 09:42:00,69.7,66.6,29.47,SSW,203,9.4,10.5,90,0.00,,,0.00,WUHU216HW,2013-01-28 15:42:00,
2013-01-28 09:47:00,69.7,66.6,29.47,SE,135,3.1,10.5,90,0.00,,,0.00,WUHU216HW,2013-01-28 15:47:00,
2013-01-28 09:52:00,69.8,66.8,29.47,SE,135,3.1,7.4,90,0.00,,,0.00,WUHU216HW,2013-01-28 15:52:00,
2013-01-28 09:57:00,70.0,66.6,29.47,SW,225,8.5,10.5,89,0.00,,,0.00,WUHU216HW,2013-01-28 15:57:00,
2013-01-28 10:02:00,70.0,66.6,29.47,SE,135,6.9,10.5,89,0.00,,,0.00,WUHU216HW,2013-01-28 16:02:00,
2013-01-28 10:07:00,70.2,66.8,29.47,SSE,158,4.7,9.8,89,0.00,,,0.00,WUHU216HW,2013-01-28 16:07:00,
2013-01-28 10:12:00,70.4,66.6,29.47,SSW,203,5.1,7.2,88,0.00,,,0.00,WUHU216HW,2013-01-28 16:12:00,
2013-01-28 10:17:00,70.4,66.6,29.47,SE,135,3.4,7.6,88,0.00,,,0.00,WUHU216HW,2013-01-28 16:17:00,
2013-01-28 10:22:00,70.4,66.6,29.46,SW,225,2.2,8.5,88,0.00,,,0.00,WUHU216HW,2013-01-28 16:22:00,
2013-01-28 10:27:00,70.6,66.8,29.47,SW,225,6.3,8.5,88,0.00,,,0.00,WUHU216HW,2013-01-28 16:27:00,
2013-01-28 10:32:00,70.6,66.8,29.46,SSW,203,3.8,8.5,88,0.00,,,0.00,WUHU216HW,2013-01-28 16:32:00,
2013-01-28 10:37:00,70.7,67.0,29.46,ESE,113,2.2,7.6,88,0.00,,,0.00,WUHU216HW,2013-01-28 16:37:00,
2013-01-28 10:42:00,70.9,66.9,29.46,SE,135,3.8,7.6,87,0.00,,,0.00,WUHU216HW,2013-01-28 16:42:00,
2013-01-28 10:47:00,71.1,67.1,29.46,SE,135,1.8,7.2,87,0.00,,,0.00,WUHU216HW,2013-01-28 16:47:00,
2013-01-28 10:52:00,71.3,66.9,29.46,SSW,203,7.6,12.8,86,0.00,,,0.00,WUHU216HW,2013-01-28 16:52:00,
2013-01-28 10:57:00,71.5,67.1,29.46,SSW,203,2.0,12.8,86,0.00,,,0.00,WUHU216HW,2013-01-28 16:57:00,
2013-01-28 11:02:00,71.6,67.2,29.46,SE,135,2.5,8.7,86,0.00,,,0.00,WUHU216HW,2013-01-28 17:02:00,
2013-01-28 11:07:00,71.6,66.9,29.46,SSE,158,5.6,8.5,85,0.00,,,0.00,WUHU216HW,2013-01-28 17:07:00,
2013-01-28 11:12:00,72.0,67.2,29.45,SW,225,11.4,11.4,85,0.00,,,0.00,WUHU216HW,2013-01-28 17:12:00,
2013-01-28 11:17:00,72.4,67.2,29.45,South,180,9.6,11.4,84,0.00,,,0.00,WUHU216HW,2013-01-28 17:17:00,
2013-01-28 11:22:00,72.7,67.2,29.46,SSW,203,6.0,10.7,83,0.00,,,0.00,WUHU216HW,2013-01-28 17:22:00,
2013-01-28 11:27:00,72.9,67.4,29.45,SSE,158,8.5,8.9,83,0.00,,,0.00,WUHU216HW,2013-01-28 17:27:00,
2013-01-28 11:32:00,73.3,67.8,29.45,SSW,203,9.8,11.6,83,0.00,,,0.00,WUHU216HW,2013-01-28 17:32:00,
2013-01-28 11:37:00,73.4,68.0,29.45,SSE,158,6.7,13.0,83,0.00,,,0.00,WUHU216HW,2013-01-28 17:37:00,
2013-01-28 11:43:00,73.8,68.1,29.45,South,180,5.6,13.0,82,0.00,,,0.00,WUHU216HW,2013-01-28 17:43:00,
2013-01-28 11:48:00,73.8,68.1,29.44,SE,135,4.0,11.2,82,0.00,,,0.00,WUHU216HW,2013-01-28 17:48:00,
2013-01-28 11:53:00,74.0,67.9,29.44,SSW,203,8.5,8.9,81,0.00,,,0.00,WUHU216HW,2013-01-28 17:53:00,
2013-01-28 11:58:00,73.8,67.3,29.44,SSW,203,12.8,14.3,80,0.00,,,0.00,WUHU216HW,2013-01-28 17:58:00,
2013-01-28 12:03:00,74.0,67.9,29.44,SSE,158,6.9,14.3,81,0.00,,,0.00,WUHU216HW,2013-01-28 18:03:00,
2013-01-28 12:08:00,74.0,67.5,29.43,SW,225,9.4,12.1,80,0.00,,,0.00,WUHU216HW,2013-01-28 18:08:00,
2013-01-28 12:13:00,73.8,67.7,29.43,ESE,113,6.9,12.1,81,0.00,,,0.00,WUHU216HW,2013-01-28 18:13:00,
2013-01-28 12:18:00,74.0,67.5,29.42,South,180,6.3,9.8,80,0.00,,,0.00,WUHU216HW,2013-01-28 18:18:00,
2013-01-28 12:23:00,73.8,67.3,29.42,South,180,5.1,9.8,80,0.00,,,0.00,WUHU216HW,2013-01-28 18:23:00,
2013-01-28 12:28:00,74.0,67.5,29.42,South,180,6.3,10.7,80,0.00,,,0.00,WUHU216HW,2013-01-28 18:28:00,
2013-01-28 12:33:00,74.2,67.3,29.42,ESE,113,6.3,10.7,79,0.00,,,0.00,WUHU216HW,2013-01-28 18:33:00,
2013-01-28 12:38:00,74.3,67.9,29.42,SSW,203,7.8,10.5,80,0.00,,,0.00,WUHU216HW,2013-01-28 18:38:00,
2013-01-28 12:43:00,74.5,67.2,29.41,South,180,8.9,13.2,78,0.00,,,0.00,WUHU216HW,2013-01-28 18:43:00,
2013-01-28 12:48:00,74.3,67.1,29.40,SE,135,4.7,14.3,78,0.00,,,0.00,WUHU216HW,2013-01-28 18:48:00,
2013-01-28 12:53:00,74.2,66.9,29.40,SSW,203,8.1,14.3,78,0.00,,,0.00,WUHU216HW,2013-01-28 18:53:00,
2013-01-28 12:58:00,73.8,66.6,29.40,SSE,158,11.0,11.0,78,0.00,,,0.00,WUHU216HW,2013-01-28 18:58:00,
2013-01-28 13:03:00,73.6,66.4,29.40,SW,225,8.3,11.0,78,0.00,,,0.00,WUHU216HW,2013-01-28 19:03:00,
2013-01-28 13:08:00,73.4,66.6,29.39,SSW,203,5.8,10.7,79,0.00,,,0.00,WUHU216HW,2013-01-28 19:08:00,
2013-01-28 13:13:00,73.4,66.6,29.39,SSW,203,4.7,10.7,79,0.00,,,0.00,WUHU216HW,2013-01-28 19:13:00,
2013-01-28 13:18:00,73.6,66.8,29.39,SSW,203,4.0,9.4,79,0.00,,,0.00,WUHU216HW,2013-01-28 19:18:00,
2013-01-28 13:23:00,73.6,66.8,29.39,SW,225,8.5,12.3,79,0.00,,,0.00,WUHU216HW,2013-01-28 19:23:00,
2013-01-28 13:28:00,73.4,66.6,29.39,SSW,203,4.7,12.3,79,0.00,,,0.00,WUHU216HW,2013-01-28 19:28:00,
2013-01-28 13:33:00,73.3,66.4,29.38,SE,135,5.4,11.6,79,0.00,,,0.00,WUHU216HW,2013-01-28 19:33:00,
2013-01-28 13:39:00,73.3,66.4,29.38,SE,135,6.3,11.6,79,0.00,,,0.00,WUHU216HW,2013-01-28 19:39:00,
2013-01-28 13:44:00,73.6,66.8,29.37,SSW,203,9.4,12.5,79,0.00,,,0.00,WUHU216HW,2013-01-28 19:44:00,
2013-01-28 13:49:00,74.0,67.2,29.37,South,180,6.3,12.5,79,0.00,,,0.00,WUHU216HW,2013-01-28 19:49:00,
2013-01-28 13:54:00,74.2,66.9,29.37,SSE,158,10.1,10.1,78,0.00,,,0.00,WUHU216HW,2013-01-28 19:54:00,
2013-01-28 13:59:00,74.0,66.7,29.37,SSW,203,8.9,11.4,78,0.00,,,0.00,WUHU216HW,2013-01-28 19:59:00,
2013-01-28 14:04:00,73.8,66.6,29.36,WSW,248,5.4,13.6,78,0.00,,,0.00,WUHU216HW,2013-01-28 20:04:00,
2013-01-28 14:09:00,73.6,66.4,29.36,SSW,203,9.4,13.6,78,0.00,,,0.00,WUHU216HW,2013-01-28 20:09:00,
2013-01-28 14:14:00,73.6,66.4,29.36,SSW,203,5.4,9.8,78,0.00,,,0.00,WUHU216HW,2013-01-28 20:14:00,
2013-01-28 14:19:00,73.8,66.6,29.36,SSE,158,2.9,9.8,78,0.00,,,0.00,WUHU216HW,2013-01-28 20:19:00,
2013-01-28 14:24:00,73.8,66.6,29.36,SSE,158,4.7,8.9,78,0.00,,,0.00,WUHU216HW,2013-01-28 20:24:00,
2013-01-28 14:29:00,73.8,66.2,29.35,South,180,4.7,11.4,77,0.00,,,0.00,WUHU216HW,2013-01-28 20:29:00,
2013-01-28 14:34:00,74.2,66.5,29.35,SSE,158,5.4,11.4,77,0.00,,,0.00,WUHU216HW,2013-01-28 20:34:00,
2013-01-28 14:39:00,74.3,66.7,29.35,SSW,203,6.7,8.7,77,0.00,,,0.00,WUHU216HW,2013-01-28 20:39:00,
2013-01-28 14:44:00,74.5,66.5,29.34,SW,225,2.5,10.7,76,0.00,,,0.00,WUHU216HW,2013-01-28 20:44:00,
2013-01-28 14:49:00,74.5,66.1,29.34,SE,135,6.3,11.9,75,0.00,,,0.00,WUHU216HW,2013-01-28 20:49:00,
2013-01-28 14:54:00,74.7,66.7,29.34,SE,135,8.1,11.9,76,0.00,,,0.00,WUHU216HW,2013-01-28 20:54:00,
2013-01-28 14:59:00,74.7,66.7,29.34,South,180,5.8,11.2,76,0.00,,,0.00,WUHU216HW,2013-01-28 20:59:00,
2013-01-28 15:05:00,74.5,66.5,29.34,SE,135,3.4,10.3,76,0.00,,,0.00,WUHU216HW,2013-01-28 21:05:00,
2013-01-28 15:10:00,74.5,66.5,29.34,SSE,158,3.8,10.3,76,0.00,,,0.00,WUHU216HW,2013-01-28 21:10:00,
2013-01-28 15:15:00,74.7,66.2,29.34,SSE,158,7.6,8.7,75,0.00,,,0.00,WUHU216HW,2013-01-28 21:15:00,
2013-01-28 15:20:00,74.5,66.5,29.33,South,180,3.4,7.6,76,0.00,,,0.00,WUHU216HW,2013-01-28 21:20:00,
2013-01-28 15:25:00,74.3,66.3,29.33,SSE,158,5.1,6.5,76,0.00,,,0.00,WUHU216HW,2013-01-28 21:25:00,
2013-01-28 15:30:00,74.2,66.5,29.33,SSE,158,6.0,7.6,77,0.00,,,0.00,WUHU216HW,2013-01-28 21:30:00,
2013-01-28 15:35:00,74.0,66.3,29.33,SSW,203,5.6,7.6,77,0.00,,,0.00,WUHU216HW,2013-01-28 21:35:00,
2013-01-28 15:40:00,73.8,66.6,29.32,SSE,158,3.6,9.6,78,0.00,,,0.00,WUHU216HW,2013-01-28 21:40:00,
2013-01-28 15:45:00,73.6,66.4,29.33,SE,135,8.5,9.8,78,0.00,,,0.00,WUHU216HW,2013-01-28 21:45:00,
2013-01-28 15:50:00,73.4,66.3,29.32,ESE,113,5.6,9.8,78,0.00,,,0.00,WUHU216HW,2013-01-28 21:50:00,
2013-01-28 15:55:00,73.4,66.3,29.33,SSE,158,3.6,8.3,78,0.00,,,0.00,WUHU216HW,2013-01-28 21:55:00,
2013-01-28 16:00:00,73.4,66.6,29.32,SE,135,5.4,7.6,79,0.00,,,0.00,WUHU216HW,2013-01-28 22:00:00,
2013-01-28 16:05:00,73.4,66.6,29.32,SSE,158,5.4,11.4,79,0.00,,,0.00,WUHU216HW,2013-01-28 22:05:00,
2013-01-28 16:10:00,73.4,66.6,29.32,SE,135,6.0,11.4,79,0.00,,,0.00,WUHU216HW,2013-01-28 22:10:00,
2013-01-28 16:15:00,73.4,66.6,29.32,SE,135,6.3,7.6,79,0.00,,,0.00,WUHU216HW,2013-01-28 22:15:00,
2013-01-28 16:20:00,73.1,66.3,29.32,SE,135,5.1,7.6,79,0.00,,,0.00,WUHU216HW,2013-01-28 22:20:00,
2013-01-28 16:25:00,73.1,66.3,29.32,SSE,158,5.6,9.6,79,0.00,,,0.00,WUHU216HW,2013-01-28 22:25:00,
2013-01-28 16:30:00,73.1,66.3,29.32,SSW,203,4.7,9.6,79,0.00,,,0.00,WUHU216HW,2013-01-28 22:30:00,
2013-01-28 16:35:00,73.1,66.6,29.32,ESE,113,4.7,5.1,80,0.00,,,0.00,WUHU216HW,2013-01-28 22:35:00,
2013-01-28 16:40:00,73.1,66.6,29.32,South,180,5.8,7.2,80,0.00,,,0.00,WUHU216HW,2013-01-28 22:40:00,
2013-01-28 16:45:00,73.1,66.6,29.31,SSE,158,4.9,8.5,80,0.00,,,0.00,WUHU216HW,2013-01-28 22:45:00,
2013-01-28 16:50:00,72.9,66.4,29.32,South,180,5.4,8.5,80,0.00,,,0.00,WUHU216HW,2013-01-28 22:50:00,
2013-01-28 16:55:00,72.9,66.4,29.31,SSW,203,4.7,8.7,80,0.00,,,0.00,WUHU216HW,2013-01-28 22:55:00,
2013-01-28 17:00:00,72.9,66.4,29.31,South,180,4.7,8.7,80,0.00,,,0.00,WUHU216HW,2013-01-28 23:00:00,
2013-01-28 17:05:00,72.9,66.4,29.31,SE,135,5.8,8.1,80,0.00,,,0.00,WUHU216HW,2013-01-28 23:05:00,
2013-01-28 17:10:00,72.9,66.4,29.31,WSW,248,3.1,10.1,80,0.00,,,0.00,WUHU216HW,2013-01-28 23:10:00,
2013-01-28 17:15:00,72.9,66.4,29.31,South,180,4.7,10.1,80,0.00,,,0.00,WUHU216HW,2013-01-28 23:15:00,
2013-01-28 17:20:00,72.9,66.4,29.31,SSW,203,6.3,6.9,80,0.00,,,0.00,WUHU216HW,2013-01-28 23:20:00,
2013-01-28 17:25:00,72.7,66.2,29.31,ENE,68,2.2,8.1,80,0.00,,,0.00,WUHU216HW,2013-01-28 23:25:00,
2013-01-28 17:30:00,72.7,66.2,29.31,SE,135,6.3,8.1,80,0.00,,,0.00,WUHU216HW,2013-01-28 23:30:00,
2013-01-28 17:35:00,72.9,66.4,29.32,SSW,203,2.0,6.5,80,0.00,,,0.00,WUHU216HW,2013-01-28 23:35:00,
2013-01-28 17:40:00,72.9,66.4,29.32,SSE,158,5.4,6.3,80,0.00,,,0.00,WUHU216HW,2013-01-28 23:40:00,
2013-01-28 17:45:00,72.9,66.4,29.32,SW,225,4.5,6.7,80,0.00,,,0.00,WUHU216HW,2013-01-28 23:45:00,
2013-01-28 17:50:00,72.9,66.4,29.31,SE,135,4.3,6.7,80,0.00,,,0.00,WUHU216HW,2013-01-28 23:50:00,
2013-01-28 17:55:00,72.9,66.4,29.31,SW,225,5.4,7.4,80,0.00,,,0.00,WUHU216HW,2013-01-28 23:55:00,
2013-01-28 18:00:00,72.9,66.4,29.31,SE,135,3.6,7.4,80,0.00,,,0.00,WUHU216HW,2013-01-29 00:00:00,
2013-01-28 18:05:00,72.7,66.6,29.31,SE,135,7.2,7.2,81,0.00,,,0.00,WUHU216HW,2013-01-29 00:05:00,
2013-01-28 18:10:00,72.7,66.6,29.31,SSW,203,7.8,7.8,81,0.00,,,0.00,WUHU216HW,2013-01-29 00:10:00,
2013-01-28 18:16:00,72.5,66.4,29.31,SSE,158,8.1,8.1,81,0.00,,,0.00,WUHU216HW,2013-01-29 00:16:00,
2013-01-28 18:21:00,72.5,66.4,29.32,SSW,203,4.3,8.1,81,0.00,,,0.00,WUHU216HW,2013-01-29 00:21:00,
2013-01-28 18:26:00,72.4,65.9,29.32,ESE,113,4.5,7.6,80,0.00,,,0.00,WUHU216HW,2013-01-29 00:26:00,
2013-01-28 18:31:00,72.4,65.9,29.31,SE,135,2.5,7.6,80,0.00,,,0.00,WUHU216HW,2013-01-29 00:31:00,
2013-01-28 18:36:00,72.4,65.9,29.32,ESE,113,2.9,6.9,80,0.00,,,0.00,WUHU216HW,2013-01-29 00:36:00,
2013-01-28 18:41:00,72.4,65.9,29.31,SSE,158,4.7,5.4,80,0.00,,,0.00,WUHU216HW,2013-01-29 00:41:00,
2013-01-28 18:46:00,72.2,65.7,29.32,SSW,203,3.4,5.6,80,0.00,,,0.00,WUHU216HW,2013-01-29 00:46:00,
2013-01-28 18:51:00,72.2,65.7,29.32,SE,135,4.0,5.6,80,0.00,,,0.00,WUHU216HW,2013-01-29 00:51:00,
2013-01-28 18:56:00,72.0,65.9,29.32,SE,135,4.3,7.2,81,0.00,,,0.00,WUHU216HW,2013-01-29 00:56:00,
2013-01-28 19:01:00,72.0,65.9,29.32,SSW,203,4.3,8.7,81,0.00,,,0.00,WUHU216HW,2013-01-29 01:01:00,
2013-01-28 19:06:00,72.0,65.9,29.32,SE,135,1.8,9.4,81,0.00,,,0.00,WUHU216HW,2013-01-29 01:06:00,
2013-01-28 19:11:00,71.8,65.7,29.32,SSE,158,4.0,9.6,81,0.00,,,0.00,WUHU216HW,2013-01-29 01:11:00,
2013-01-28 19:16:00,71.8,65.7,29.32,SE,135,4.7,9.6,81,0.00,,,0.00,WUHU216HW,2013-01-29 01:16:00,
2013-01-28 19:21:00,71.8,66.1,29.33,SSW,203,5.4,7.8,82,0.00,,,0.00,WUHU216HW,2013-01-29 01:21:00,
2013-01-28 19:26:00,71.8,66.1,29.33,SSE,158,6.9,7.8,82,0.00,,,0.00,WUHU216HW,2013-01-29 01:26:00,
2013-01-28 19:31:00,71.8,66.1,29.33,SSE,158,2.5,8.1,82,0.00,,,0.00,WUHU216HW,2013-01-29 01:31:00,
2013-01-28 19:36:00,71.8,66.1,29.34,SSE,158,2.5,8.1,82,0.00,,,0.00,WUHU216HW,2013-01-29 01:36:00,
2013-01-28 19:41:00,71.6,65.9,29.33,SSW,203,6.3,7.8,82,0.00,,,0.00,WUHU216HW,2013-01-29 01:41:00,
2013-01-28 19:46:00,71.6,65.9,29.34,ESE,113,5.6,8.1,82,0.00,,,0.00,WUHU216HW,2013-01-29 01:46:00,
2013-01-28 19:51:00,71.6,65.9,29.33,SE,135,2.7,8.1,82,0.00,,,0.00,WUHU216HW,2013-01-29 01:51:00,
2013-01-28 19:56:00,71.6,65.9,29.33,SSE,158,4.7,6.3,82,0.00,,,0.00,WUHU216HW,2013-01-29 01:56:00,
2013-01-28 20:01:00,71.6,65.9,29.34,South,180,2.2,6.3,82,0.00,,,0.00,WUHU216HW,2013-01-29 02:01:00,
2013-01-28 20:06:00,71.6,65.9,29.34,SSW,203,4.7,7.2,82,0.00,,,0.00,WUHU216HW,2013-01-29 02:06:00,
2013-01-28 20:11:00,71.5,65.7,29.34,SE,135,3.8,7.2,82,0.00,,,0.00,WUHU216HW,2013-01-29 02:11:00,
2013-01-28 20:16:00,71.5,66.0,29.34,SE,135,8.3,10.3,83,0.00,,,0.00,WUHU216HW,2013-01-29 02:16:00,
2013-01-28 20:21:00,71.3,65.8,29.33,SSE,158,6.3,10.3,83,0.00,,,0.00,WUHU216HW,2013-01-29 02:21:00,
2013-01-28 20:27:00,71.3,66.2,29.34,SSW,203,6.7,10.7,84,0.00,,,0.00,WUHU216HW,2013-01-29 02:27:00,
2013-01-28 20:32:00,71.1,66.0,29.34,SSE,158,5.8,10.7,84,0.00,,,0.00,WUHU216HW,2013-01-29 02:32:00,
2013-01-28 20:37:00,70.9,65.8,29.33,SE,135,6.5,7.6,84,0.00,,,0.00,WUHU216HW,2013-01-29 02:37:00,
2013-01-28 20:42:00,70.9,65.8,29.34,SW,225,4.9,6.5,84,0.00,,,0.00,WUHU216HW,2013-01-29 02:42:00,
2013-01-28 20:47:00,70.9,65.8,29.33,SSW,203,4.5,10.1,84,0.00,,,0.00,WUHU216HW,2013-01-29 02:47:00,
2013-01-28 20:52:00,70.9,65.8,29.33,SE,135,3.6,10.1,84,0.00,,,0.00,WUHU216HW,2013-01-29 02:52:00,
2013-01-28 20:57:00,70.9,65.8,29.33,SE,135,6.3,6.9,84,0.00,,,0.00,WUHU216HW,2013-01-29 02:57:00,
2013-01-28 21:02:00,70.9,65.8,29.34,South,180,6.9,6.9,84,0.00,,,0.00,WUHU216HW,2013-01-29 03:02:00,
2013-01-28 21:07:00,70.9,66.2,29.34,East,90,2.7,8.5,85,0.00,,,0.00,WUHU216HW,2013-01-29 03:07:00,
2013-01-28 21:12:00,70.9,66.2,29.34,SSE,158,11.2,11.2,85,0.00,,,0.00,WUHU216HW,2013-01-29 03:12:00,
2013-01-28 21:17:00,70.9,66.2,29.34,SSE,158,6.5,11.2,85,0.00,,,0.00,WUHU216HW,2013-01-29 03:17:00,
2013-01-28 21:22:00,70.7,66.0,29.34,SSE,158,3.4,6.7,85,0.00,,,0.00,WUHU216HW,2013-01-29 03:22:00,
2013-01-28 21:27:00,70.7,66.0,29.33,South,180,3.8,10.5,85,0.00,,,0.00,WUHU216HW,2013-01-29 03:27:00,
2013-01-28 21:32:00,70.7,66.3,29.33,SSE,158,6.7,10.5,86,0.00,,,0.00,WUHU216HW,2013-01-29 03:32:00,
2013-01-28 21:37:00,70.7,66.0,29.33,SSW,203,2.5,8.3,85,0.00,,,0.00,WUHU216HW,2013-01-29 03:37:00,
2013-01-28 21:42:00,70.6,66.2,29.33,SE,135,4.5,8.3,86,0.00,,,0.00,WUHU216HW,2013-01-29 03:42:00,
2013-01-28 21:47:00,70.6,66.2,29.33,SE,135,8.5,8.9,86,0.00,,,0.00,WUHU216HW,2013-01-29 03:47:00,
2013-01-28 21:52:00,70.6,66.2,29.33,SW,225,4.0,8.9,86,0.00,,,0.00,WUHU216HW,2013-01-29 03:52:00,
2013-01-28 21:57:00,70.6,66.2,29.33,South,180,7.2,10.3,86,0.00,,,0.00,WUHU216HW,2013-01-29 03:57:00,
2013-01-28 22:02:00,70.6,66.2,29.33,SSW,203,7.4,10.3,86,0.00,,,0.00,WUHU216HW,2013-01-29 04:02:00,
2013-01-28 22:08:00,70.6,66.5,29.33,SE,135,9.6,9.6,87,0.00,,,0.00,WUHU216HW,2013-01-29 04:08:00,
2013-01-28 22:13:00,70.6,66.5,29.33,South,180,4.9,9.6,87,0.00,,,0.00,WUHU216HW,2013-01-29 04:13:00,
2013-01-28 22:18:00,70.6,66.5,29.33,SSW,203,5.4,10.7,87,0.00,,,0.00,WUHU216HW,2013-01-29 04:18:00,
2013-01-28 22:23:00,70.4,66.3,29.32,SSE,158,6.9,10.7,87,0.00,,,0.00,WUHU216HW,2013-01-29 04:23:00,
2013-01-28 22:28:00,70.4,66.3,29.32,ESE,113,6.7,8.7,87,0.00,,,0.00,WUHU216HW,2013-01-29 04:28:00,
2013-01-28 22:33:00,70.4,66.6,29.32,South,180,8.3,8.7,88,0.00,,,0.00,WUHU216HW,2013-01-29 04:33:00,
2013-01-28 22:38:00,70.2,66.2,29.33,ESE,113,4.7,10.3,87,0.00,,,0.00,WUHU216HW,2013-01-29 04:38:00,
2013-01-28 22:43:00,70.2,66.4,29.33,SW,225,7.8,10.3,88,0.00,,,0.00,WUHU216HW,2013-01-29 04:43:00,
2013-01-28 22:48:00,70.2,66.4,29.33,SE,135,2.2,7.8,88,0.00,,,0.00,WUHU216HW,2013-01-29 04:48:00,
2013-01-28 22:53:00,70.2,66.4,29.33,SSW,203,6.0,9.2,88,0.00,,,0.00,WUHU216HW,2013-01-29 04:53:00,
2013-01-28 22:58:00,70.2,66.4,29.32,SE,135,6.5,11.0,88,0.00,,,0.00,WUHU216HW,2013-01-29 04:58:00,
2013-01-28 23:00:00,70.2,66.4,29.32,SSE,158,7.6,11.4,88,0.00,,,0.00,WUHU216HW,2013-01-29 05:00:00,
2013-01-28 23:02:00,70.2,66.4,29.32,SSW,203,5.8,11.4,88,0.00,,,0.00,WUHU216HW,2013-01-29 05:02:00,
2013-01-28 23:03:00,70.2,66.4,29.32,SE,135,4.7,11.4,88,0.00,,,0.00,WUHU216HW,2013-01-29 05:03:00,
2013-01-28 23:08:00,70.2,66.4,29.32,SE,135,4.7,11.4,88,0.00,,,0.00,WUHU216HW,2013-01-29 05:08:00,
2013-01-28 23:13:00,70.2,66.4,29.32,SSW,203,5.8,7.8,88,0.00,,,0.00,WUHU216HW,2013-01-29 05:13:00,
2013-01-28 23:18:00,70.2,66.4,29.31,SSW,203,5.1,7.8,88,0.00,,,0.00,WUHU216HW,2013-01-29 05:18:00,
2013-01-28 23:23:00,70.2,66.4,29.31,SE,135,6.3,7.6,88,0.00,,,0.00,WUHU216HW,2013-01-29 05:23:00,
2013-01-28 23:28:00,70.2,66.4,29.30,South,180,4.5,7.6,88,0.00,,,0.00,WUHU216HW,2013-01-29 05:28:00,
2013-01-28 23:33:00,70.2,66.4,29.30,SSE,158,6.5,7.6,88,0.00,,,0.00,WUHU216HW,2013-01-29 05:33:00,
2013-01-28 23:38:00,70.0,66.2,29.30,East,90,6.9,7.6,88,0.00,,,0.00,WUHU216HW,2013-01-29 05:38:00,
2013-01-28 23:43:00,70.0,66.2,29.30,SE,135,7.4,10.7,88,0.00,,,0.00,WUHU216HW,2013-01-29 05:43:00,
2013-01-28 23:48:00,70.0,66.2,29.30,SE,135,4.7,10.7,88,0.00,,,0.00,WUHU216HW,2013-01-29 05:48:00,
2013-01-28 23:54:00,70.0,66.2,29.30,South,180,5.4,9.2,88,0.00,,,0.00,WUHU216HW,2013-01-29 05:54:00,
2013-01-28 23:59:00,70.0,66.2,29.30,South,180,5.4,10.5,88,0.00,,,0.00,WUHU216HW,2013-01-29 05:59:00,